createdAt,value
2018-06-13T00:04:33.124Z,16.50
2018-06-13T00:09:37.771Z,16.50
2018-06-13T00:14:42.571Z,16.40
2018-06-13T00:19:47.877Z,16.40
2018-06-13T00:24:53.532Z,16.30
2018-06-13T00:29:58.215Z,16.20
2018-06-13T00:35:02.989Z,16.30
2018-06-13T00:40:07.937Z,16.30
2018-06-13T00:45:12.774Z,16.30
2018-06-13T00:50:17.698Z,16.30
2018-06-13T00:55:22.349Z,16.30
2018-06-13T01:00:27.200Z,16.30
2018-06-13T01:05:32.137Z,16.40
2018-06-13T01:10:36.858Z,16.30
2018-06-13T01:15:41.930Z,16.20
2018-06-13T01:20:46.648Z,16.20
2018-06-13T01:25:51.512Z,16.10
2018-06-13T01:30:56.195Z,16.00
2018-06-13T01:36:01.492Z,16.10
2018-06-13T01:41:06.239Z,16.00
2018-06-13T01:46:11.150Z,16.00
2018-06-13T01:51:16.114Z,16.00
2018-06-13T01:56:20.940Z,16.10
2018-06-13T02:01:25.997Z,16.10
2018-06-13T02:06:30.847Z,16.10
2018-06-13T02:11:35.584Z,16.10
2018-06-13T02:16:41.438Z,16.20
2018-06-13T02:21:46.139Z,16.20
2018-06-13T02:26:50.906Z,16.20
2018-06-13T02:31:56.270Z,15.90
2018-06-13T02:37:01.008Z,15.60
2018-06-13T02:42:05.928Z,15.50
2018-06-13T02:47:10.667Z,15.40
2018-06-13T02:52:15.443Z,15.40
2018-06-13T02:57:20.197Z,15.40
2018-06-13T03:02:25.432Z,15.30
2018-06-13T03:07:30.140Z,15.20
2018-06-13T03:12:35.386Z,15.10
2018-06-13T03:17:40.282Z,14.80
2018-06-13T03:22:45.725Z,14.70
2018-06-13T03:27:50.460Z,14.60
2018-06-13T03:32:55.296Z,14.40
2018-06-13T03:38:00.025Z,14.20
2018-06-13T03:43:04.842Z,14.20
2018-06-13T03:48:09.646Z,14.10
2018-06-13T03:53:14.594Z,14.10
2018-06-13T03:58:19.408Z,14.10
2018-06-13T04:03:24.117Z,14.10
2018-06-13T04:08:28.905Z,14.10
2018-06-13T04:13:33.766Z,14.10
2018-06-13T04:18:38.686Z,14.00
2018-06-13T04:23:43.434Z,14.00
2018-06-13T04:28:48.022Z,14.00
2018-06-13T04:33:53.005Z,13.90
2018-06-13T04:38:58.486Z,13.90
2018-06-13T04:44:03.165Z,13.90
2018-06-13T04:49:09.168Z,14.00
2018-06-13T04:54:13.832Z,14.00
2018-06-13T04:59:18.598Z,13.90
2018-06-13T05:04:23.404Z,13.80
2018-06-13T05:09:28.248Z,13.80
2018-06-13T05:14:32.999Z,13.80
2018-06-13T05:24:42.664Z,13.70
2018-06-13T05:29:47.212Z,13.70
2018-06-13T05:34:52.343Z,13.80
2018-06-13T05:39:57.225Z,13.80
2018-06-13T05:45:01.799Z,13.80
2018-06-13T05:50:06.502Z,13.70
2018-06-13T05:56:14.073Z,13.60
2018-06-13T06:01:18.959Z,13.60
2018-06-13T06:06:23.671Z,13.50
2018-06-13T06:11:28.291Z,13.60
2018-06-13T06:16:33.035Z,13.70
2018-06-13T06:21:37.926Z,13.70
2018-06-13T06:26:43.465Z,13.70
2018-06-13T06:31:48.645Z,13.50
2018-06-13T06:36:53.538Z,13.60
2018-06-13T06:41:58.424Z,13.70
2018-06-13T06:47:03.419Z,13.50
2018-06-13T06:52:08.206Z,13.40
2018-06-13T06:57:12.948Z,13.40
2018-06-13T07:02:17.669Z,13.60
2018-06-13T07:07:22.639Z,13.60
2018-06-13T07:12:27.455Z,13.70
2018-06-13T07:17:32.089Z,13.70
2018-06-13T07:22:36.774Z,13.70
2018-06-13T07:27:41.810Z,13.80
2018-06-13T07:32:46.942Z,13.70
2018-06-13T07:37:51.654Z,13.80
2018-06-13T07:42:56.421Z,13.70
2018-06-13T07:48:01.178Z,13.80
2018-06-13T07:58:10.080Z,13.70
2018-06-13T08:03:14.670Z,13.70
2018-06-13T08:08:19.570Z,13.80
2018-06-13T08:13:24.793Z,13.70
2018-06-13T08:18:30.346Z,13.70
2018-06-13T08:28:39.279Z,13.80
2018-06-13T08:33:44.734Z,14.00
2018-06-13T08:38:50.203Z,14.10
2018-06-13T08:43:56.381Z,14.00
2018-06-13T08:49:01.266Z,14.00
2018-06-13T08:54:07.194Z,13.80
2018-06-13T08:59:12.641Z,13.70
2018-06-13T09:04:17.506Z,13.60
2018-06-13T09:09:22.357Z,13.80
2018-06-13T09:14:26.973Z,13.80
2018-06-13T09:19:31.636Z,13.90
2018-06-13T09:24:36.381Z,13.80
2018-06-13T09:29:41.102Z,14.00
2018-06-13T09:34:46.444Z,14.00
2018-06-13T09:39:51.754Z,14.10
2018-06-13T09:44:56.451Z,14.10
2018-06-13T09:50:01.862Z,14.20
2018-06-13T09:55:06.629Z,14.40
2018-06-13T10:00:16.854Z,14.50
2018-06-13T10:05:21.560Z,14.60
2018-06-13T10:10:26.316Z,14.70
2018-06-13T10:15:30.932Z,14.90
2018-06-13T10:20:35.614Z,14.80
2018-06-13T10:25:40.650Z,14.60
2018-06-13T10:30:45.361Z,14.60
2018-06-13T10:35:50.410Z,14.60
2018-06-13T10:40:55.143Z,14.60
2018-06-13T10:45:59.798Z,14.70
2018-06-13T10:51:04.536Z,14.70
2018-06-13T10:56:10.504Z,14.60
2018-06-13T11:01:15.240Z,14.50
2018-06-13T11:06:19.872Z,14.70
2018-06-13T11:11:25.188Z,14.60
2018-06-13T11:16:29.780Z,14.50
2018-06-13T11:21:34.421Z,14.60
2018-06-13T11:26:40.840Z,14.50
2018-06-13T11:31:45.805Z,14.20
2018-06-13T11:36:51.035Z,14.50
2018-06-13T11:41:56.175Z,14.40
2018-06-13T11:47:01.414Z,14.60
2018-06-13T11:52:06.504Z,14.80
2018-06-13T11:57:11.150Z,14.80
2018-06-13T12:02:15.845Z,14.60
2018-06-13T12:07:20.484Z,14.60
2018-06-13T12:12:25.060Z,14.40
2018-06-13T12:17:30.501Z,14.40
2018-06-13T12:22:35.773Z,14.40
2018-06-13T12:27:40.463Z,14.30
2018-06-13T12:32:45.691Z,14.20
2018-06-13T12:37:50.381Z,14.20
2018-06-13T12:42:55.782Z,14.20
2018-06-13T12:48:00.548Z,14.10
2018-06-13T12:53:05.413Z,14.10
2018-06-13T12:58:10.033Z,14.20
2018-06-13T13:03:14.854Z,14.30
2018-06-13T13:08:20.854Z,14.30
2018-06-13T13:13:25.549Z,14.40
2018-06-13T13:18:30.727Z,14.40
2018-06-13T13:23:35.232Z,14.40
2018-06-13T13:28:39.912Z,14.50
2018-06-13T13:33:44.669Z,14.40
2018-06-13T13:38:50.139Z,14.30
2018-06-13T13:43:54.869Z,14.20
2018-06-13T13:49:00.045Z,14.20
2018-06-13T13:54:05.585Z,14.10
2018-06-13T13:59:10.678Z,14.50
2018-06-13T14:04:15.333Z,14.70
2018-06-13T14:09:19.932Z,14.70
2018-06-13T14:14:24.525Z,14.70
2018-06-13T14:19:29.208Z,14.40
2018-06-13T14:24:34.316Z,14.40
2018-06-13T14:29:38.865Z,14.30
2018-06-13T14:34:43.500Z,14.20
2018-06-13T14:39:48.754Z,14.30
2018-06-13T14:44:54.212Z,14.30
2018-06-13T14:50:00.296Z,14.30
2018-06-13T14:55:05.713Z,14.30
2018-06-13T15:00:10.476Z,14.20
2018-06-13T15:05:15.225Z,14.20
2018-06-13T15:10:19.874Z,14.40
2018-06-13T15:20:28.516Z,14.40
2018-06-13T15:25:33.185Z,14.40
2018-06-13T15:30:37.928Z,14.50
2018-06-13T15:35:42.533Z,14.40
2018-06-13T15:40:47.286Z,14.50
2018-06-13T15:45:52.953Z,14.50
2018-06-13T15:50:58.290Z,14.50
2018-06-13T15:56:02.953Z,14.60
2018-06-13T16:01:08.107Z,14.50
2018-06-13T16:06:13.182Z,14.60
2018-06-13T16:11:17.922Z,14.50
2018-06-13T16:16:24.546Z,14.40
2018-06-13T16:21:29.196Z,14.40
2018-06-13T16:26:33.957Z,14.50
2018-06-13T16:31:38.610Z,14.50
2018-06-13T16:36:43.456Z,14.40
2018-06-13T16:41:48.487Z,14.50
2018-06-13T16:46:53.454Z,14.60
2018-06-13T16:51:58.893Z,14.70
2018-06-13T16:57:03.549Z,14.70
2018-06-13T17:02:09.137Z,14.60
2018-06-13T17:07:13.835Z,14.60
2018-06-13T17:12:18.680Z,14.50
2018-06-13T17:17:23.399Z,14.50
2018-06-13T17:22:28.438Z,14.40
2018-06-13T17:27:33.966Z,14.40
2018-06-13T17:32:38.879Z,14.50
2018-06-13T17:37:43.909Z,14.40
2018-06-13T17:42:49.237Z,14.50
2018-06-13T17:47:54.301Z,14.50
2018-06-13T17:52:59.186Z,14.50
2018-06-13T17:58:04.034Z,14.50
2018-06-13T18:03:08.805Z,14.50
2018-06-13T18:08:13.601Z,14.40
2018-06-13T18:13:18.462Z,14.40
2018-06-13T18:18:23.264Z,14.50
2018-06-13T18:23:27.999Z,14.50
2018-06-13T18:28:32.683Z,14.60
2018-06-13T18:33:37.401Z,14.60
2018-06-13T18:38:42.372Z,14.70
2018-06-13T18:43:47.094Z,14.60
2018-06-13T18:48:52.135Z,14.60
2018-06-13T18:53:56.997Z,14.60
2018-06-13T18:59:02.509Z,14.50
2018-06-13T19:04:07.469Z,14.40
2018-06-13T19:09:12.393Z,14.30
2018-06-13T19:14:17.280Z,14.30
2018-06-13T19:19:22.208Z,14.30
2018-06-13T19:24:26.880Z,14.10
2018-06-13T19:29:31.595Z,14.10
2018-06-13T19:34:36.958Z,14.10
2018-06-13T19:39:41.830Z,14.10
2018-06-13T19:44:46.714Z,14.00
2018-06-13T19:49:51.518Z,13.90
2018-06-13T19:55:01.397Z,13.80
2018-06-13T20:00:06.420Z,13.70
2018-06-13T20:05:16.374Z,13.80
2018-06-13T20:10:21.408Z,13.80
2018-06-13T20:15:31.260Z,13.70
2018-06-13T20:20:36.202Z,13.70
2018-06-13T20:25:45.994Z,13.70
2018-06-13T20:31:59.630Z,13.70
2018-06-13T20:37:04.584Z,13.60
2018-06-13T20:42:09.517Z,13.70
2018-06-13T20:47:14.179Z,13.70
2018-06-13T20:52:19.802Z,13.70
2018-06-13T20:57:24.689Z,13.60
2018-06-13T21:02:30.126Z,13.50
2018-06-13T21:07:35.057Z,13.50
2018-06-13T21:12:40.119Z,13.40
2018-06-13T21:17:44.866Z,13.40
2018-06-13T21:22:49.935Z,13.40
2018-06-13T21:27:54.516Z,13.40
2018-06-13T21:32:59.421Z,13.40
2018-06-13T21:38:04.241Z,13.30
2018-06-13T21:43:09.188Z,13.30
2018-06-13T21:48:14.420Z,13.30
2018-06-13T21:53:19.677Z,13.20
2018-06-13T21:58:24.441Z,13.20
2018-06-13T22:03:29.078Z,13.30
2018-06-13T22:08:33.810Z,13.30
2018-06-13T22:13:38.742Z,13.20
2018-06-13T22:18:43.440Z,13.10
2018-06-13T22:23:48.267Z,13.10
2018-06-13T22:28:52.881Z,12.90
2018-06-13T22:33:58.220Z,12.90
2018-06-13T22:39:03.587Z,12.80
2018-06-13T22:44:08.368Z,12.80
2018-06-13T22:49:13.184Z,12.70
2018-06-13T22:54:18.303Z,12.70
2018-06-13T22:59:24.194Z,12.70
2018-06-13T23:04:28.949Z,12.60
2018-06-13T23:09:33.682Z,12.50
2018-06-13T23:14:38.396Z,12.60
2018-06-13T23:19:43.308Z,12.70
2018-06-13T23:24:48.122Z,12.70
2018-06-13T23:29:53.055Z,12.80
2018-06-13T23:34:57.768Z,12.70
2018-06-13T23:40:03.353Z,12.70
2018-06-13T23:45:07.966Z,12.70
2018-06-13T23:50:12.851Z,12.70
2018-06-13T23:55:18.040Z,12.70
